Time;durP1;ratioP1;P1;durP2;ratioP2;P2;SDS_P1;SDS_P2;PMS_P1;PMS_P2;Temp;Humidity;BMP_temperature;BMP_pressure;BME280_temperature;BME280_humidity;BME280_pressure;Samples;Min_cycle;Max_cycle;Signal;HPM_P1;HPM_P2
2021/12/28 00:01:13;;;;;;;39.10;22.13;;;-1.40;99.90;;;;;;5028050;28;20235;-70
2021/12/28 00:03:43;;;;;;;35.33;21.13;;;-1.40;99.90;;;;;;5027720;28;20196;-70
2021/12/28 00:06:11;;;;;;;33.07;20.47;;;-1.40;99.90;;;;;;5027726;28;20215;-70
2021/12/28 00:08:38;;;;;;;34.93;20.50;;;-1.40;99.90;;;;;;5027396;28;20208;-70
2021/12/28 00:11:18;;;;;;;39.43;21.63;;;-1.40;99.90;;;;;;5027257;28;20212;-70
2021/12/28 00:13:47;;;;;;;36.03;21.53;;;-1.40;99.90;;;;;;5028330;28;20199;-70
2021/12/28 00:16:30;;;;;;;37.87;22.80;;;-1.40;99.90;;;;;;5027937;28;20667;-70
2021/12/28 00:18:58;;;;;;;40.10;21.67;;;-1.40;99.90;;;;;;5027911;28;20667;-70
2021/12/28 00:21:24;;;;;;;37.03;22.13;;;-1.50;99.90;;;;;;5028363;28;20371;-70
2021/12/28 00:23:51;;;;;;;35.53;21.00;;;-1.50;99.90;;;;;;5027900;28;20604;-73
2021/12/28 00:26:20;;;;;;;40.87;23.33;;;-1.50;99.90;;;;;;5028130;28;20211;-71
2021/12/28 00:28:48;;;;;;;37.97;21.43;;;-1.50;99.90;;;;;;5028295;28;20269;-70
2021/12/28 00:31:16;;;;;;;38.27;22.67;;;-1.50;99.90;;;;;;5028193;28;20235;-71
2021/12/28 00:33:44;;;;;;;40.10;22.83;;;-1.50;99.90;;;;;;5028002;28;20231;-71
2021/12/28 00:36:11;;;;;;;37.90;22.20;;;-1.50;99.90;;;;;;5028221;28;20573;-72
2021/12/28 00:38:38;;;;;;;37.07;22.03;;;-1.60;99.90;;;;;;5028032;28;20239;-71
2021/12/28 00:41:08;;;;;;;40.13;23.00;;;-1.60;99.90;;;;;;5027809;28;20627;-70
2021/12/28 00:43:35;;;;;;;39.07;23.40;;;-1.60;99.90;;;;;;5028074;28;20233;-70
2021/12/28 00:46:06;;;;;;;39.80;21.63;;;-1.60;99.90;;;;;;5027898;28;20208;-70
2021/12/28 00:48:33;;;;;;;40.83;22.63;;;-1.60;99.90;;;;;;5027854;28;20204;-70
2021/12/28 00:51:00;;;;;;;40.80;23.03;;;-1.60;99.90;;;;;;5026082;28;20220;-70
2021/12/28 00:53:27;;;;;;;40.10;23.40;;;-1.60;99.90;;;;;;5026142;28;20370;-70
2021/12/28 00:55:54;;;;;;;41.77;23.43;;;-1.60;99.90;;;;;;5027869;28;20223;-70
2021/12/28 00:58:21;;;;;;;40.60;22.17;;;-1.60;99.90;;;;;;5027682;28;20260;-72
2021/12/28 01:00:48;;;;;;;42.93;22.50;;;-1.60;99.90;;;;;;5027892;28;20212;-72
2021/12/28 01:03:16;;;;;;;38.50;22.77;;;-1.60;99.90;;;;;;5027874;28;20234;-73
2021/12/28 01:05:44;;;;;;;37.10;21.70;;;-1.60;99.90;;;;;;5028011;28;20220;-73
2021/12/28 01:08:11;;;;;;;40.17;22.50;;;-1.60;99.90;;;;;;5027669;28;20242;-73
2021/12/28 01:10:40;;;;;;;41.40;23.00;;;-1.60;99.90;;;;;;5027598;28;20318;-73
2021/12/28 01:13:08;;;;;;;38.03;21.83;;;-1.60;99.90;;;;;;5027375;28;20674;-73
2021/12/28 01:15:35;;;;;;;38.40;22.63;;;-1.60;99.90;;;;;;5027887;28;20474;-73
2021/12/28 01:18:02;;;;;;;41.30;24.20;;;-1.60;99.90;;;;;;5027600;28;20203;-73
2021/12/28 01:20:30;;;;;;;38.50;22.57;;;-1.60;99.90;;;;;;5027667;28;20272;-73
2021/12/28 01:22:58;;;;;;;37.27;23.13;;;-1.60;99.90;;;;;;5028444;28;20306;-72
2021/12/28 01:25:25;;;;;;;42.00;23.13;;;-1.60;99.90;;;;;;5031027;28;20702;-71
2021/12/28 01:27:52;;;;;;;42.70;23.80;;;-1.60;99.90;;;;;;5031170;28;20207;-72
2021/12/28 01:30:21;;;;;;;38.67;23.27;;;-1.60;99.90;;;;;;5030972;28;20726;-72
2021/12/28 01:32:48;;;;;;;39.30;23.93;;;-1.60;99.90;;;;;;5031279;28;20220;-72
2021/12/28 01:35:17;;;;;;;36.90;22.87;;;-1.60;99.90;;;;;;5030847;28;20229;-72
2021/12/28 01:37:46;;;;;;;35.40;22.93;;;-1.60;99.90;;;;;;5030753;28;20828;-72
2021/12/28 01:40:16;;;;;;;41.93;24.03;;;-1.60;99.90;;;;;;5030568;28;20239;-72
2021/12/28 01:43:01;;;;;;;40.47;23.70;;;-1.60;99.90;;;;;;5031041;28;20225;-72
2021/12/28 01:45:33;;;;;;;41.37;23.40;;;-1.60;99.90;;;;;;5030867;28;20681;-72
2021/12/28 01:48:00;;;;;;;39.27;23.17;;;-1.60;99.90;;;;;;5031060;28;20214;-71
2021/12/28 01:50:26;;;;;;;41.73;22.83;;;-1.60;99.90;;;;;;5030702;28;20209;-70
2021/12/28 01:52:54;;;;;;;39.67;23.77;;;-1.60;99.90;;;;;;5030252;28;20290;-71
2021/12/28 01:55:21;;;;;;;40.77;23.47;;;-1.60;99.90;;;;;;5030454;28;20612;-71
2021/12/28 01:57:49;;;;;;;39.80;23.63;;;-1.60;99.90;;;;;;5030608;28;20294;-71
2021/12/28 02:00:16;;;;;;;37.77;22.90;;;-1.60;99.90;;;;;;5030453;28;20261;-72
2021/12/28 02:02:43;;;;;;;39.83;23.57;;;-1.60;99.90;;;;;;5030468;28;20270;-71
2021/12/28 02:05:10;;;;;;;38.47;23.17;;;-1.60;99.90;;;;;;5030184;28;20684;-71
2021/12/28 02:07:37;;;;;;;41.53;23.60;;;-1.60;99.90;;;;;;5030128;28;20216;-71
2021/12/28 02:10:06;;;;;;;39.77;22.73;;;-1.60;99.90;;;;;;5030264;28;20372;-71
2021/12/28 02:12:33;;;;;;;41.43;23.80;;;-1.60;99.90;;;;;;5030416;28;20211;-71
2021/12/28 02:15:05;;;;;;;35.27;22.03;;;-1.60;99.90;;;;;;5017489;28;20218;-70
2021/12/28 02:17:32;;;;;;;42.10;24.03;;;-1.60;99.90;;;;;;5010761;28;20200;-70
2021/12/28 02:20:05;;;;;;;38.80;23.13;;;-1.60;99.90;;;;;;5010396;28;20208;-72
2021/12/28 02:22:32;;;;;;;44.03;24.27;;;-1.60;99.90;;;;;;5010322;28;20286;-73
2021/12/28 02:24:58;;;;;;;38.33;23.33;;;-1.60;99.90;;;;;;5010336;28;20649;-71
2021/12/28 02:27:29;;;;;;;41.67;24.00;;;-1.60;99.90;;;;;;5010522;28;20215;-72
2021/12/28 02:29:56;;;;;;;44.03;23.90;;;-1.70;99.90;;;;;;5010487;28;20205;-72
2021/12/28 02:32:26;;;;;;;40.73;23.73;;;-1.70;99.90;;;;;;5010247;28;20742;-72
2021/12/28 02:34:53;;;;;;;39.73;23.23;;;-1.70;99.90;;;;;;5009171;28;20318;-72
2021/12/28 02:37:22;;;;;;;38.93;23.40;;;-1.70;99.90;;;;;;5010236;28;20208;-73
2021/12/28 02:39:49;;;;;;;40.17;23.53;;;-1.70;99.90;;;;;;5009867;28;20244;-73
2021/12/28 02:42:17;;;;;;;38.60;23.17;;;-1.70;99.90;;;;;;5009701;28;20761;-72
2021/12/28 02:44:44;;;;;;;40.30;23.20;;;-1.70;99.90;;;;;;5010134;28;20212;-72
2021/12/28 02:47:12;;;;;;;40.33;24.43;;;-1.70;99.90;;;;;;5009780;28;20303;-73
2021/12/28 02:49:38;;;;;;;37.17;22.77;;;-1.70;99.90;;;;;;5010121;28;20210;-71
2021/12/28 02:52:09;;;;;;;38.70;23.77;;;-1.70;99.90;;;;;;5009435;28;20720;-72
2021/12/28 02:54:38;;;;;;;40.03;23.60;;;-1.70;99.90;;;;;;5009749;28;20247;-72
2021/12/28 02:57:05;;;;;;;44.40;23.47;;;-1.70;99.90;;;;;;5009699;28;20298;-72
2021/12/28 02:59:32;;;;;;;37.63;21.47;;;-1.70;99.90;;;;;;5009727;28;20211;-71
2021/12/28 03:01:59;;;;;;;40.70;23.10;;;-1.70;99.90;;;;;;5009666;28;20236;-72
2021/12/28 03:04:27;;;;;;;41.43;23.90;;;-1.70;99.90;;;;;;5009699;28;20581;-71
2021/12/28 03:06:54;;;;;;;43.33;23.90;;;-1.70;99.90;;;;;;5009425;28;20274;-70
2021/12/28 03:09:22;;;;;;;38.37;23.37;;;-1.70;99.90;;;;;;5009239;28;20232;-71
2021/12/28 03:11:51;;;;;;;41.87;23.53;;;-1.80;99.90;;;;;;5009488;28;20307;-70
2021/12/28 03:14:17;;;;;;;38.67;22.33;;;-1.80;99.90;;;;;;5009337;28;20207;-70
2021/12/28 03:16:44;;;;;;;41.27;23.90;;;-1.80;99.90;;;;;;5009433;28;20262;-70
2021/12/28 03:19:11;;;;;;;37.83;22.77;;;-1.80;99.90;;;;;;5009118;28;20207;-70
2021/12/28 03:21:38;;;;;;;39.90;23.53;;;-1.80;99.90;;;;;;5009261;28;20626;-71
2021/12/28 03:24:06;;;;;;;43.67;23.77;;;-1.80;99.90;;;;;;5009072;28;20251;-71
2021/12/28 03:26:33;;;;;;;42.83;23.93;;;-1.80;99.90;;;;;;5009385;28;20218;-71
2021/12/28 03:29:02;;;;;;;44.90;24.20;;;-1.80;99.90;;;;;;5009121;28;20212;-71
2021/12/28 03:31:29;;;;;;;40.93;23.70;;;-1.80;99.90;;;;;;5009033;28;20636;-71
2021/12/28 03:33:56;;;;;;;42.57;23.23;;;-1.80;99.90;;;;;;5009027;28;20227;-71
2021/12/28 03:36:25;;;;;;;38.57;22.03;;;-1.80;99.90;;;;;;5008762;28;20231;-71
2021/12/28 03:38:52;;;;;;;37.00;21.97;;;-1.80;99.90;;;;;;5008619;28;20778;-71
2021/12/28 03:41:21;;;;;;;42.60;24.23;;;-1.80;99.90;;;;;;5008814;28;20216;-71
2021/12/28 03:43:51;;;;;;;40.67;23.13;;;-1.80;99.90;;;;;;5008954;28;20231;-71
2021/12/28 03:46:20;;;;;;;41.93;23.03;;;-1.80;99.90;;;;;;5008451;28;20209;-71
2021/12/28 03:48:47;;;;;;;40.90;23.20;;;-1.80;99.90;;;;;;5009920;28;20209;-71
2021/12/28 03:51:16;;;;;;;37.53;23.53;;;-1.80;99.90;;;;;;5008567;28;20215;-71
2021/12/28 03:53:44;;;;;;;40.40;22.67;;;-1.80;99.90;;;;;;5008470;28;20211;-71
2021/12/28 03:56:11;;;;;;;41.87;23.73;;;-1.80;99.90;;;;;;5008472;28;20212;-71
2021/12/28 03:58:40;;;;;;;40.17;23.17;;;-1.80;99.90;;;;;;5008920;28;20676;-71
2021/12/28 04:01:08;;;;;;;38.30;22.37;;;-1.70;99.90;;;;;;5008658;28;20204;-72
2021/12/28 04:03:36;;;;;;;38.20;22.53;;;-1.70;99.90;;;;;;5008195;28;20296;-72
2021/12/28 04:06:08;;;;;;;41.03;24.00;;;-1.70;99.90;;;;;;5008326;28;20232;-72
2021/12/28 04:08:36;;;;;;;36.90;22.30;;;-1.70;99.90;;;;;;5008180;28;20236;-72
2021/12/28 04:11:15;;;;;;;44.43;23.47;;;-1.70;99.90;;;;;;5008140;28;20219;-72
2021/12/28 04:13:44;;;;;;;42.83;23.53;;;-1.70;99.90;;;;;;5008538;28;20358;-69
2021/12/28 04:16:11;;;;;;;38.80;22.70;;;-1.70;99.90;;;;;;5007829;28;20209;-70
2021/12/28 04:18:39;;;;;;;39.87;22.13;;;-1.70;99.90;;;;;;5008394;28;20265;-69
2021/12/28 04:21:06;;;;;;;39.17;22.63;;;-1.70;99.90;;;;;;5007969;28;20598;-70
2021/12/28 04:23:33;;;;;;;39.10;22.97;;;-1.70;99.90;;;;;;5008037;28;20240;-70
2021/12/28 04:25:59;;;;;;;39.60;21.60;;;-1.70;99.90;;;;;;5008075;28;20205;-70
2021/12/28 04:28:26;;;;;;;41.30;23.67;;;-1.70;99.90;;;;;;5008223;28;20208;-70
2021/12/28 04:30:53;;;;;;;39.90;22.57;;;-1.70;99.90;;;;;;5008039;28;20653;-70
2021/12/28 04:33:19;;;;;;;42.13;23.50;;;-1.70;99.90;;;;;;5007963;28;20246;-70
2021/12/28 04:35:48;;;;;;;39.53;24.23;;;-1.70;99.90;;;;;;5007885;28;21061;-70
2021/12/28 04:38:14;;;;;;;38.33;22.67;;;-1.70;99.90;;;;;;5007743;28;20215;-71
2021/12/28 04:40:41;;;;;;;38.37;22.40;;;-1.70;99.90;;;;;;5008296;28;20212;-71
2021/12/28 04:43:10;;;;;;;39.50;22.80;;;-1.70;99.90;;;;;;5008042;28;20303;-71
2021/12/28 04:45:37;;;;;;;43.10;23.33;;;-1.70;99.90;;;;;;5008120;28;20213;-71
2021/12/28 04:48:06;;;;;;;40.80;22.77;;;-1.60;99.90;;;;;;5008136;28;20680;-71
2021/12/28 04:50:37;;;;;;;40.87;23.13;;;-1.60;99.90;;;;;;5008042;28;20824;-71
2021/12/28 04:53:08;;;;;;;37.77;23.17;;;-1.60;99.90;;;;;;5007756;28;20232;-72
2021/12/28 04:55:35;;;;;;;41.17;23.27;;;-1.60;99.90;;;;;;5008190;28;20199;-71
2021/12/28 04:58:02;;;;;;;42.93;23.37;;;-1.60;99.90;;;;;;5009444;28;20208;-71
2021/12/28 05:00:29;;;;;;;39.90;21.67;;;-1.60;99.90;;;;;;5011836;28;20257;-71
2021/12/28 05:02:56;;;;;;;40.40;23.27;;;-1.60;99.90;;;;;;5011773;28;20239;-70
2021/12/28 05:05:23;;;;;;;37.73;22.57;;;-1.60;99.90;;;;;;5011406;28;20576;-71
2021/12/28 05:07:49;;;;;;;38.87;22.63;;;-1.60;99.90;;;;;;5011650;28;20663;-71
2021/12/28 05:10:17;;;;;;;40.60;23.60;;;-1.60;99.90;;;;;;5011477;28;20213;-71
2021/12/28 05:12:44;;;;;;;39.70;22.33;;;-1.60;99.90;;;;;;5011849;28;20228;-71
2021/12/28 05:15:11;;;;;;;41.83;22.53;;;-1.50;99.90;;;;;;5011146;28;20663;-70
2021/12/28 05:17:38;;;;;;;40.03;23.57;;;-1.50;99.90;;;;;;5011588;28;20212;-70
2021/12/28 05:20:06;;;;;;;38.13;22.60;;;-1.50;99.90;;;;;;5011237;28;20212;-70
2021/12/28 05:22:33;;;;;;;41.00;23.67;;;-1.50;99.90;;;;;;5011328;28;20232;-70
2021/12/28 05:25:00;;;;;;;38.57;22.97;;;-1.50;99.90;;;;;;5011269;28;20211;-70
2021/12/28 05:27:28;;;;;;;39.80;22.17;;;-1.50;99.90;;;;;;5011225;28;20251;-70
2021/12/28 05:29:54;;;;;;;42.10;23.80;;;-1.50;99.90;;;;;;5011366;28;20451;-71
2021/12/28 05:32:21;;;;;;;40.83;23.13;;;-1.50;99.90;;;;;;5011344;28;20583;-70
2021/12/28 05:34:48;;;;;;;38.93;22.90;;;-1.60;99.90;;;;;;5011357;28;20255;-70
2021/12/28 05:37:14;;;;;;;42.37;22.60;;;-1.60;99.90;;;;;;5010821;28;20788;-71
2021/12/28 05:39:41;;;;;;;43.17;23.03;;;-1.50;99.90;;;;;;5010794;28;20253;-70
2021/12/28 05:42:08;;;;;;;41.87;24.00;;;-1.50;99.90;;;;;;5011067;28;20617;-70
2021/12/28 05:44:36;;;;;;;41.43;23.63;;;-1.60;99.90;;;;;;5010974;28;20271;-70
2021/12/28 05:47:03;;;;;;;41.47;23.67;;;-1.60;99.90;;;;;;5010960;28;20217;-70
2021/12/28 05:49:30;;;;;;;45.37;23.87;;;-1.60;99.90;;;;;;5010633;28;20292;-70
2021/12/28 05:51:57;;;;;;;39.47;22.67;;;-1.60;99.90;;;;;;5011086;28;20232;-70
2021/12/28 05:54:23;;;;;;;42.47;23.40;;;-1.60;99.90;;;;;;5010783;28;20258;-70
2021/12/28 05:56:50;;;;;;;41.17;22.63;;;-1.60;99.90;;;;;;5010802;28;20276;-70
2021/12/28 05:59:17;;;;;;;41.53;23.43;;;-1.50;99.90;;;;;;5010803;28;20208;-70
2021/12/28 06:01:45;;;;;;;43.93;23.87;;;-1.50;99.90;;;;;;5010812;28;20299;-71
2021/12/28 06:04:12;;;;;;;43.90;24.27;;;-1.50;99.90;;;;;;5010827;28;20294;-71
2021/12/28 06:06:39;;;;;;;43.67;23.77;;;-1.50;99.90;;;;;;5010702;28;20638;-71
2021/12/28 06:09:05;;;;;;;40.07;23.87;;;-1.50;99.90;;;;;;5010534;28;20650;-70
2021/12/28 06:11:32;;;;;;;41.70;23.83;;;-1.50;99.90;;;;;;5010954;28;20207;-70
2021/12/28 06:13:58;;;;;;;43.03;24.73;;;-1.50;99.90;;;;;;5010659;28;20234;-71
2021/12/28 06:16:25;;;;;;;39.40;23.93;;;-1.40;99.90;;;;;;5010300;28;20710;-71
2021/12/28 06:18:53;;;;;;;42.70;24.87;;;-1.40;99.90;;;;;;5010385;28;20216;-72
2021/12/28 06:21:20;;;;;;;41.90;24.50;;;-1.40;99.90;;;;;;5010277;28;20686;-72
2021/12/28 06:23:46;;;;;;;45.03;25.70;;;-1.40;99.90;;;;;;5009863;28;20800;-72
2021/12/28 06:26:13;;;;;;;40.20;24.60;;;-1.40;99.90;;;;;;5010304;28;20304;-71
2021/12/28 06:28:40;;;;;;;39.43;22.27;;;-1.40;99.90;;;;;;5010158;28;20252;-71
2021/12/28 06:31:06;;;;;;;45.27;26.00;;;-1.40;99.90;;;;;;5009869;28;20208;-71
2021/12/28 06:33:33;;;;;;;44.80;24.67;;;-1.40;99.90;;;;;;5009702;28;20233;-70
2021/12/28 06:36:01;;;;;;;43.30;24.63;;;-1.40;99.90;;;;;;5009876;28;20223;-70
2021/12/28 06:38:27;;;;;;;43.97;25.23;;;-1.40;99.90;;;;;;5009811;28;20243;-71
2021/12/28 06:40:54;;;;;;;41.10;23.80;;;-1.40;99.90;;;;;;5010559;28;20205;-71
2021/12/28 06:43:21;;;;;;;43.70;23.77;;;-1.30;99.90;;;;;;5009735;28;20233;-71
2021/12/28 06:45:50;;;;;;;45.47;24.23;;;-1.30;99.90;;;;;;5009812;28;20274;-71
2021/12/28 06:48:17;;;;;;;42.10;24.70;;;-1.30;99.90;;;;;;5009528;28;20303;-72
2021/12/28 06:50:44;;;;;;;43.00;24.63;;;-1.40;99.90;;;;;;5009642;28;20224;-72
2021/12/28 06:53:11;;;;;;;41.20;24.03;;;-1.30;99.90;;;;;;5009630;28;20662;-71
2021/12/28 06:55:38;;;;;;;46.73;25.00;;;-1.30;99.90;;;;;;5009515;28;20220;-71
2021/12/28 06:58:05;;;;;;;42.60;24.73;;;-1.30;99.90;;;;;;5009831;28;20209;-71
2021/12/28 07:00:32;;;;;;;48.40;25.20;;;-1.30;99.90;;;;;;5009892;28;20217;-71
2021/12/28 07:02:59;;;;;;;44.70;24.27;;;-1.30;99.90;;;;;;5009311;28;20231;-71
2021/12/28 07:05:26;;;;;;;44.43;24.07;;;-1.30;99.90;;;;;;5009595;28;20219;-71
2021/12/28 07:07:53;;;;;;;38.63;23.17;;;-1.30;99.90;;;;;;5009398;28;20650;-71
2021/12/28 07:10:21;;;;;;;42.87;24.23;;;-1.30;99.90;;;;;;5009246;28;20376;-72
2021/12/28 07:12:50;;;;;;;43.27;24.90;;;-1.30;99.90;;;;;;5009660;28;20215;-70
2021/12/28 07:15:17;;;;;;;46.67;24.10;;;-1.30;99.90;;;;;;5008921;28;20762;-70
2021/12/28 07:17:44;;;;;;;43.20;23.77;;;-1.30;99.90;;;;;;5009310;28;20234;-70
2021/12/28 07:20:12;;;;;;;46.73;23.73;;;-1.30;99.90;;;;;;5008938;28;20205;-70
2021/12/28 07:22:38;;;;;;;42.37;24.43;;;-1.30;99.90;;;;;;5009434;28;20274;-70
2021/12/28 07:25:07;;;;;;;37.70;23.67;;;-1.30;99.90;;;;;;5009157;28;20244;-69
2021/12/28 07:27:35;;;;;;;42.30;23.97;;;-1.30;99.90;;;;;;5009402;28;20742;-70
2021/12/28 07:30:03;;;;;;;45.53;24.93;;;-1.30;99.90;;;;;;5009159;28;20237;-71
2021/12/28 07:32:31;;;;;;;45.77;24.33;;;-1.20;99.90;;;;;;5009078;28;20286;-71
2021/12/28 07:34:57;;;;;;;43.27;23.33;;;-1.20;99.90;;;;;;5009174;28;20224;-71
2021/12/28 07:37:24;;;;;;;41.50;24.63;;;-1.20;99.90;;;;;;5009209;28;20599;-71
2021/12/28 07:39:53;;;;;;;40.80;23.77;;;-1.20;99.90;;;;;;5008517;28;20240;-70
2021/12/28 07:42:20;;;;;;;36.07;22.93;;;-1.10;99.90;;;;;;5008587;28;20685;-71
2021/12/28 07:44:49;;;;;;;43.53;24.50;;;-1.10;99.90;;;;;;5009085;28;20268;-71
2021/12/28 07:47:15;;;;;;;41.53;24.03;;;-1.10;99.90;;;;;;5008711;28;20660;-71
2021/12/28 07:49:42;;;;;;;41.60;23.97;;;-1.10;99.90;;;;;;5009182;28;20213;-70
2021/12/28 07:52:09;;;;;;;45.40;24.93;;;-1.10;99.90;;;;;;5008943;28;20233;-71
2021/12/28 07:54:36;;;;;;;40.90;24.87;;;-1.00;99.90;;;;;;5008689;28;20269;-71
2021/12/28 07:57:03;;;;;;;42.03;23.70;;;-1.00;99.90;;;;;;5008893;28;20277;-71
2021/12/28 07:59:30;;;;;;;43.53;23.90;;;-1.00;99.90;;;;;;5008943;28;20208;-70
2021/12/28 08:01:58;;;;;;;41.90;25.10;;;-1.00;99.90;;;;;;5008622;28;20212;-71
2021/12/28 08:04:27;;;;;;;41.83;24.43;;;-1.00;99.90;;;;;;5008450;28;20793;-72
2021/12/28 08:06:54;;;;;;;44.03;25.33;;;-1.00;99.90;;;;;;5008595;28;20229;-72
2021/12/28 08:09:21;;;;;;;44.43;24.00;;;-1.00;99.90;;;;;;5008088;28;20695;-72
2021/12/28 08:11:47;;;;;;;38.73;24.00;;;-1.00;99.90;;;;;;5008615;28;20223;-72
2021/12/28 08:14:14;;;;;;;46.30;24.33;;;-1.00;99.90;;;;;;5008534;28;20364;-70
2021/12/28 08:16:41;;;;;;;44.77;24.30;;;-1.00;99.90;;;;;;5024289;28;20212;-70
2021/12/28 08:19:09;;;;;;;46.47;25.10;;;-1.00;99.90;;;;;;5027905;28;20716;-70
2021/12/28 08:21:36;;;;;;;43.80;25.00;;;-1.00;99.90;;;;;;5028201;28;20224;-72
2021/12/28 08:24:02;;;;;;;40.83;24.43;;;-0.90;99.90;;;;;;5028099;28;20229;-71
2021/12/28 08:26:29;;;;;;;43.57;24.83;;;-0.90;99.90;;;;;;5028281;28;20421;-72
2021/12/28 08:28:56;;;;;;;42.50;24.73;;;-0.90;99.90;;;;;;5028096;28;20725;-72
2021/12/28 08:31:23;;;;;;;40.60;23.53;;;-0.90;99.90;;;;;;5027558;28;20723;-72
2021/12/28 08:33:49;;;;;;;36.87;23.10;;;-0.90;99.90;;;;;;5030927;28;20212;-72
2021/12/28 08:36:17;;;;;;;45.53;25.07;;;-0.80;99.90;;;;;;5031864;28;20626;-72
2021/12/28 08:38:44;;;;;;;44.17;24.63;;;-0.80;99.90;;;;;;5032040;28;20681;-72
2021/12/28 08:41:12;;;;;;;43.53;25.33;;;-0.80;99.90;;;;;;5031922;28;20551;-70
2021/12/28 08:43:39;;;;;;;40.23;23.70;;;-0.80;99.90;;;;;;5032041;28;20224;-70
2021/12/28 08:46:08;;;;;;;39.37;23.90;;;-0.70;99.90;;;;;;5031760;28;20211;-70
2021/12/28 08:48:35;;;;;;;43.27;24.63;;;-0.70;99.90;;;;;;5031813;28;20200;-70
2021/12/28 08:51:02;;;;;;;41.50;23.77;;;-0.70;99.90;;;;;;5031789;28;20243;-71
2021/12/28 08:53:30;;;;;;;47.00;24.57;;;-0.70;99.90;;;;;;5031941;28;20216;-71
2021/12/28 08:55:56;;;;;;;43.67;24.30;;;-0.70;99.90;;;;;;5031855;28;20613;-73
2021/12/28 08:58:23;;;;;;;45.37;24.70;;;-0.70;99.90;;;;;;5031748;28;20205;-69
2021/12/28 09:00:50;;;;;;;44.33;24.47;;;-0.70;99.90;;;;;;5031848;28;20204;-69
2021/12/28 09:03:16;;;;;;;44.33;24.60;;;-0.70;99.90;;;;;;5031579;28;20204;-69
2021/12/28 09:05:43;;;;;;;41.83;24.30;;;-0.70;99.90;;;;;;5021038;28;20224;-69
2021/12/28 09:08:13;;;;;;;43.07;24.53;;;-0.70;99.90;;;;;;5007895;28;20826;-69
2021/12/28 09:10:41;;;;;;;44.00;23.23;;;-0.70;99.90;;;;;;5008262;28;20194;-70
2021/12/28 09:13:09;;;;;;;45.33;24.73;;;-0.70;99.90;;;;;;5008323;28;20279;-69
2021/12/28 09:15:36;;;;;;;43.70;24.80;;;-0.70;99.90;;;;;;5007931;28;20220;-70
2021/12/28 09:18:04;;;;;;;42.23;24.10;;;-0.60;99.90;;;;;;5007907;28;20209;-70
2021/12/28 09:20:30;;;;;;;43.37;23.93;;;-0.60;99.90;;;;;;5007871;28;20217;-69
2021/12/28 09:22:57;;;;;;;34.60;23.13;;;-0.60;99.90;;;;;;5008300;28;20263;-69
2021/12/28 09:25:24;;;;;;;43.63;24.40;;;-0.60;99.90;;;;;;5007981;28;20239;-69
2021/12/28 09:27:53;;;;;;;41.43;24.00;;;-0.50;99.90;;;;;;5007744;28;20208;-70
2021/12/28 09:30:20;;;;;;;42.73;24.17;;;-0.50;99.90;;;;;;5007446;28;20209;-68
2021/12/28 09:32:47;;;;;;;40.47;23.80;;;-0.50;99.90;;;;;;5007739;28;20237;-68
2021/12/28 09:35:16;;;;;;;39.73;23.60;;;-0.50;99.90;;;;;;5007616;28;20209;-68
2021/12/28 09:37:43;;;;;;;41.67;23.57;;;-0.40;99.90;;;;;;5014382;28;20208;-70
2021/12/28 09:40:12;;;;;;;41.30;24.10;;;-0.40;99.90;;;;;;5030312;28;20241;-70
2021/12/28 09:42:41;;;;;;;42.13;24.63;;;-0.40;99.90;;;;;;5031002;28;20263;-70
2021/12/28 09:45:11;;;;;;;37.87;23.73;;;-0.40;99.90;;;;;;5030047;28;20263;-70
2021/12/28 09:47:38;;;;;;;44.77;24.60;;;-0.40;99.90;;;;;;5030828;28;20292;-70
2021/12/28 09:50:06;;;;;;;41.40;23.37;;;-0.40;99.90;;;;;;5030658;28;20220;-69
2021/12/28 09:52:33;;;;;;;45.53;24.30;;;-0.40;99.90;;;;;;5030853;28;20208;-70
2021/12/28 09:55:00;;;;;;;38.73;23.23;;;-0.40;99.90;;;;;;5030650;28;20240;-69
2021/12/28 09:57:28;;;;;;;41.67;24.30;;;-0.30;99.90;;;;;;5030635;28;20213;-69
2021/12/28 09:59:55;;;;;;;38.37;22.60;;;-0.30;99.90;;;;;;5029330;28;21098;-69
2021/12/28 10:02:23;;;;;;;40.53;23.73;;;-0.30;99.90;;;;;;5019793;28;20263;-69
2021/12/28 10:04:59;;;;;;;38.67;23.70;;;-0.30;99.90;;;;;;5020999;28;20244;-69
2021/12/28 10:07:27;;;;;;;43.50;23.87;;;-0.30;99.90;;;;;;5027512;28;20319;-70
2021/12/28 10:09:56;;;;;;;42.43;24.73;;;-0.30;99.90;;;;;;5028183;28;20212;-69
2021/12/28 10:12:28;;;;;;;38.20;23.63;;;-0.30;99.90;;;;;;5028002;28;20213;-69
2021/12/28 10:14:56;;;;;;;39.70;23.77;;;-0.30;99.90;;;;;;5027814;28;20204;-69
2021/12/28 10:17:26;;;;;;;39.23;24.40;;;-0.20;99.90;;;;;;5012932;28;20217;-70
2021/12/28 10:19:52;;;;;;;41.67;23.67;;;-0.20;99.90;;;;;;5008018;28;20676;-69
2021/12/28 10:22:29;;;;;;;42.50;24.20;;;-0.20;99.90;;;;;;5008749;28;20209;-69
2021/12/28 10:24:59;;;;;;;42.93;24.10;;;-0.20;99.90;;;;;;5008297;28;20754;-69
2021/12/28 10:27:29;;;;;;;45.33;24.20;;;-0.20;99.90;;;;;;5008294;28;20206;-69
2021/12/28 10:30:03;;;;;;;39.13;22.43;;;-0.20;99.90;;;;;;5007629;28;21087;-69
2021/12/28 10:32:31;;;;;;;39.57;22.77;;;-0.20;99.90;;;;;;5007423;28;20227;-69
2021/12/28 10:35:00;;;;;;;40.27;23.70;;;-0.10;99.90;;;;;;5007674;28;20209;-67
2021/12/28 10:37:29;;;;;;;37.33;22.17;;;-0.10;99.90;;;;;;5007323;28;20209;-67
2021/12/28 10:39:58;;;;;;;36.40;21.47;;;-0.10;99.90;;;;;;5007106;28;20280;-67
2021/12/28 10:42:46;;;;;;;35.43;21.97;;;0.00;99.90;;;;;;5007544;28;20202;-71
2021/12/28 10:45:15;;;;;;;39.50;21.73;;;0.10;99.90;;;;;;5007735;28;20225;-73
2021/12/28 10:47:43;;;;;;;41.03;22.53;;;0.10;99.90;;;;;;5007744;28;20252;-71
2021/12/28 10:50:26;;;;;;;37.40;22.47;;;0.20;99.90;;;;;;5022037;28;20225;-71
2021/12/28 10:53:06;;;;;;;36.80;21.50;;;0.20;99.90;;;;;;5028656;28;20192;-71
2021/12/28 10:55:33;;;;;;;36.53;23.13;;;0.30;99.90;;;;;;5027588;28;20189;-70
2021/12/28 10:58:02;;;;;;;37.73;22.47;;;0.40;99.90;;;;;;5028171;28;20266;-70
2021/12/28 11:00:31;;;;;;;34.60;21.13;;;0.40;99.90;;;;;;5027525;28;20834;-71
2021/12/28 11:03:34;;;;;;;39.47;22.50;;;0.40;99.90;;;;;;5028157;28;20205;-71
2021/12/28 11:06:23;;;;;;;34.37;21.43;;;0.40;99.90;;;;;;5027649;28;20323;-71
2021/12/28 11:08:52;;;;;;;36.53;20.93;;;0.40;99.90;;;;;;5028662;28;20247;-71
2021/12/28 11:11:21;;;;;;;34.97;20.73;;;0.40;99.90;;;;;;5029280;28;20213;-71
2021/12/28 11:13:49;;;;;;;35.10;20.87;;;0.50;99.90;;;;;;5029273;28;20279;-70
2021/12/28 11:16:20;;;;;;;33.20;21.07;;;0.50;99.90;;;;;;5029107;28;20663;-70
2021/12/28 11:18:49;;;;;;;34.93;21.47;;;0.40;99.90;;;;;;5029487;28;20205;-71
2021/12/28 11:21:19;;;;;;;34.53;20.77;;;0.40;99.90;;;;;;5029002;28;20209;-70
2021/12/28 11:23:48;;;;;;;36.10;21.33;;;0.50;99.90;;;;;;5028921;28;20205;-70
2021/12/28 11:26:20;;;;;;;38.50;22.63;;;0.50;99.90;;;;;;5029177;28;20294;-70
2021/12/28 11:28:57;;;;;;;37.03;21.00;;;0.50;99.90;;;;;;5029082;28;20260;-70
2021/12/28 11:31:26;;;;;;;34.13;19.93;;;0.50;99.90;;;;;;5029120;28;20232;-71
2021/12/28 11:34:02;;;;;;;36.50;20.67;;;0.50;99.90;;;;;;5029299;28;20516;-70
2021/12/28 11:36:32;;;;;;;37.43;21.33;;;0.50;99.90;;;;;;5028037;28;20589;-71
2021/12/28 11:39:01;;;;;;;34.70;20.10;;;0.50;99.90;;;;;;5026253;28;20236;-71
2021/12/28 11:41:28;;;;;;;33.07;20.77;;;0.50;99.90;;;;;;5029130;28;20258;-71
2021/12/28 11:43:58;;;;;;;34.20;21.13;;;0.50;99.90;;;;;;5028791;28;20247;-70
2021/12/28 11:46:27;;;;;;;36.37;21.87;;;0.50;99.90;;;;;;5028730;28;20239;-70
2021/12/28 11:48:55;;;;;;;32.00;20.23;;;0.50;99.90;;;;;;5028498;28;20672;-71
2021/12/28 11:51:24;;;;;;;33.27;21.17;;;0.50;99.90;;;;;;5028651;28;20204;-71
2021/12/28 11:53:52;;;;;;;34.37;21.07;;;0.50;99.90;;;;;;5028346;28;20619;-70
2021/12/28 11:56:23;;;;;;;31.43;20.17;;;0.50;99.90;;;;;;5028508;28;20224;-71
2021/12/28 11:58:54;;;;;;;32.20;20.17;;;0.60;99.90;;;;;;5028705;28;20193;-71
2021/12/28 12:01:42;;;;;;;34.23;20.57;;;0.50;99.90;;;;;;5028313;28;20233;-71
2021/12/28 12:04:43;;;;;;;33.83;20.00;;;0.60;99.90;;;;;;5028542;28;20560;-71
2021/12/28 12:07:12;;;;;;;33.27;20.60;;;0.60;99.90;;;;;;5028090;28;20264;-71
2021/12/28 12:10:10;;;;;;;33.07;19.90;;;0.60;99.90;;;;;;5028432;28;20209;-71
2021/12/28 12:12:48;;;;;;;34.93;19.73;;;0.60;99.90;;;;;;5028527;28;20201;-71
2021/12/28 12:15:16;;;;;;;33.53;20.00;;;0.60;99.90;;;;;;5028374;28;20247;-71
2021/12/28 12:17:44;;;;;;;33.10;20.50;;;0.60;99.90;;;;;;5028495;28;20275;-71
2021/12/28 12:20:24;;;;;;;33.00;20.27;;;0.60;99.90;;;;;;5028321;28;20652;-71
2021/12/28 12:22:52;;;;;;;32.73;19.33;;;0.60;99.90;;;;;;5028515;28;20197;-71
2021/12/28 12:25:22;;;;;;;30.23;19.20;;;0.60;99.90;;;;;;5027809;28;20885;-71
2021/12/28 12:27:51;;;;;;;34.70;18.97;;;0.60;99.90;;;;;;5027970;28;20228;-71
2021/12/28 12:30:45;;;;;;;30.47;18.40;;;0.60;99.90;;;;;;5027773;28;20250;-71
2021/12/28 12:33:14;;;;;;;30.93;19.00;;;0.60;99.90;;;;;;5027954;28;20638;-71
2021/12/28 12:35:49;;;;;;;30.77;19.10;;;0.60;99.90;;;;;;5028248;28;20205;-71